sensor_id;sensor_type;location;lat;lon;timestamp;pressure;altitude;pressure_sealevel;temperature;humidity
15193;BME280;7697;51.630;7.484;2022-07-29T00:00:26;100907.19;;;21.05;51.96
15193;BME280;7697;51.630;7.484;2022-07-29T00:05:29;100902.06;;;20.98;52.14
15193;BME280;7697;51.630;7.484;2022-07-29T00:10:31;100902.03;;;20.93;52.44
15193;BME280;7697;51.630;7.484;2022-07-29T00:15:33;100899.00;;;20.84;52.55
15193;BME280;7697;51.630;7.484;2022-07-29T00:20:36;100891.13;;;20.78;53.08
15193;BME280;7697;51.630;7.484;2022-07-29T00:25:38;100888.16;;;20.74;52.85
15193;BME280;7697;51.630;7.484;2022-07-29T00:30:39;100881.41;;;20.72;52.92
15193;BME280;7697;51.630;7.484;2022-07-29T00:35:44;100876.00;;;20.67;51.97
15193;BME280;7697;51.630;7.484;2022-07-29T00:40:46;100862.00;;;20.65;52.13
15193;BME280;7697;51.630;7.484;2022-07-29T00:45:48;100857.38;;;20.60;51.95
15193;BME280;7697;51.630;7.484;2022-07-29T00:50:51;100842.84;;;20.61;52.06
15193;BME280;7697;51.630;7.484;2022-07-29T00:55:54;100834.44;;;20.52;51.89
15193;BME280;7697;51.630;7.484;2022-07-29T01:00:55;100850.34;;;20.54;51.95
15193;BME280;7697;51.630;7.484;2022-07-29T01:06:00;100838.44;;;20.50;52.52
15193;BME280;7697;51.630;7.484;2022-07-29T01:11:02;100826.09;;;20.49;52.24
15193;BME280;7697;51.630;7.484;2022-07-29T01:16:09;100833.06;;;20.50;53.33
15193;BME280;7697;51.630;7.484;2022-07-29T01:21:24;100835.72;;;20.45;54.31
15193;BME280;7697;51.630;7.484;2022-07-29T01:26:36;100826.53;;;20.41;54.41
15193;BME280;7697;51.630;7.484;2022-07-29T01:31:49;100830.75;;;20.32;54.45
15193;BME280;7697;51.630;7.484;2022-07-29T01:37:01;100808.13;;;20.28;54.85
15193;BME280;7697;51.630;7.484;2022-07-29T01:42:11;100808.63;;;20.24;55.71
15193;BME280;7697;51.630;7.484;2022-07-29T01:47:20;100810.47;;;20.19;55.39
15193;BME280;7697;51.630;7.484;2022-07-29T01:52:26;100807.47;;;20.15;55.47
15193;BME280;7697;51.630;7.484;2022-07-29T01:57:31;100802.88;;;20.11;56.33
15193;BME280;7697;51.630;7.484;2022-07-29T02:02:35;100793.44;;;20.08;56.39
15193;BME280;7697;51.630;7.484;2022-07-29T02:07:40;100778.34;;;20.02;56.00
15193;BME280;7697;51.630;7.484;2022-07-29T02:12:43;100779.91;;;19.98;56.62
15193;BME280;7697;51.630;7.484;2022-07-29T02:17:52;100775.56;;;19.92;57.02
15193;BME280;7697;51.630;7.484;2022-07-29T02:22:59;100784.38;;;19.88;57.02
15193;BME280;7697;51.630;7.484;2022-07-29T02:28:02;100788.09;;;19.81;57.73
15193;BME280;7697;51.630;7.484;2022-07-29T02:33:07;100780.50;;;19.73;57.96
15193;BME280;7697;51.630;7.484;2022-07-29T02:38:12;100778.56;;;19.69;58.42
15193;BME280;7697;51.630;7.484;2022-07-29T02:43:32;100780.66;;;19.62;58.82
15193;BME280;7697;51.630;7.484;2022-07-29T02:48:41;100778.50;;;19.59;59.32
15193;BME280;7697;51.630;7.484;2022-07-29T02:53:49;100775.72;;;19.54;59.67
15193;BME280;7697;51.630;7.484;2022-07-29T02:58:56;100770.78;;;19.45;60.21
15193;BME280;7697;51.630;7.484;2022-07-29T03:04:02;100769.13;;;19.39;59.80
15193;BME280;7697;51.630;7.484;2022-07-29T03:09:06;100760.69;;;19.31;59.45
15193;BME280;7697;51.630;7.484;2022-07-29T03:14:09;100755.50;;;19.24;59.49
15193;BME280;7697;51.630;7.484;2022-07-29T03:19:12;100760.59;;;19.21;59.94
15193;BME280;7697;51.630;7.484;2022-07-29T03:24:33;100770.50;;;19.20;60.62
15193;BME280;7697;51.630;7.484;2022-07-29T03:29:34;100769.94;;;19.18;60.22
15193;BME280;7697;51.630;7.484;2022-07-29T03:34:37;100770.16;;;19.11;61.50
15193;BME280;7697;51.630;7.484;2022-07-29T03:39:40;100767.66;;;19.05;61.54
15193;BME280;7697;51.630;7.484;2022-07-29T03:44:44;100768.16;;;19.02;61.53
15193;BME280;7697;51.630;7.484;2022-07-29T03:49:50;100762.16;;;18.95;61.63
15193;BME280;7697;51.630;7.484;2022-07-29T03:54:54;100758.84;;;18.88;61.53
15193;BME280;7697;51.630;7.484;2022-07-29T03:59:56;100743.47;;;18.83;62.32
15193;BME280;7697;51.630;7.484;2022-07-29T04:04:59;100743.47;;;18.83;62.33
15193;BME280;7697;51.630;7.484;2022-07-29T04:10:01;100749.34;;;18.80;62.68
15193;BME280;7697;51.630;7.484;2022-07-29T04:15:03;100753.59;;;18.76;62.43
15193;BME280;7697;51.630;7.484;2022-07-29T04:20:08;100753.78;;;18.69;62.74
15193;BME280;7697;51.630;7.484;2022-07-29T04:25:10;100763.44;;;18.70;63.40
15193;BME280;7697;51.630;7.484;2022-07-29T04:30:12;100764.75;;;18.68;63.14
15193;BME280;7697;51.630;7.484;2022-07-29T04:35:15;100786.13;;;19.23;63.51
15193;BME280;7697;51.630;7.484;2022-07-29T04:40:16;100793.28;;;18.74;64.45
15193;BME280;7697;51.630;7.484;2022-07-29T04:45:18;100794.34;;;18.56;64.56
15193;BME280;7697;51.630;7.484;2022-07-29T04:50:21;100821.81;;;18.47;65.00
15193;BME280;7697;51.630;7.484;2022-07-29T04:55:23;100806.78;;;18.46;64.94
15193;BME280;7697;51.630;7.484;2022-07-29T05:00:25;100827.75;;;18.49;65.16
15193;BME280;7697;51.630;7.484;2022-07-29T05:05:28;100833.13;;;18.49;65.28
15193;BME280;7697;51.630;7.484;2022-07-29T05:10:30;100845.31;;;18.56;64.75
15193;BME280;7697;51.630;7.484;2022-07-29T05:15:33;100844.88;;;18.59;64.84
15193;BME280;7697;51.630;7.484;2022-07-29T05:20:36;100856.47;;;18.65;64.95
15193;BME280;7697;51.630;7.484;2022-07-29T05:25:38;100850.06;;;18.66;64.32
15193;BME280;7697;51.630;7.484;2022-07-29T05:30:40;100851.69;;;18.67;65.38
15193;BME280;7697;51.630;7.484;2022-07-29T05:35:43;100863.72;;;18.64;65.63
15193;BME280;7697;51.630;7.484;2022-07-29T05:40:45;100841.69;;;18.62;64.86
15193;BME280;7697;51.630;7.484;2022-07-29T05:45:46;100830.06;;;18.57;65.65
15193;BME280;7697;51.630;7.484;2022-07-29T05:50:49;100835.19;;;18.58;66.70
15193;BME280;7697;51.630;7.484;2022-07-29T05:55:51;100842.72;;;18.61;68.14
15193;BME280;7697;51.630;7.484;2022-07-29T06:00:53;100833.47;;;18.69;68.00
15193;BME280;7697;51.630;7.484;2022-07-29T06:06:00;100835.59;;;19.05;67.83
15193;BME280;7697;51.630;7.484;2022-07-29T06:11:02;100844.66;;;18.83;68.78
15193;BME280;7697;51.630;7.484;2022-07-29T06:16:04;100852.47;;;18.84;69.83
15193;BME280;7697;51.630;7.484;2022-07-29T06:21:11;100843.81;;;18.99;69.36
15193;BME280;7697;51.630;7.484;2022-07-29T06:26:12;100854.03;;;19.62;68.22
15193;BME280;7697;51.630;7.484;2022-07-29T06:31:14;100847.34;;;19.92;67.22
15193;BME280;7697;51.630;7.484;2022-07-29T06:36:17;100832.59;;;19.45;67.37
15193;BME280;7697;51.630;7.484;2022-07-29T06:41:19;100831.88;;;19.33;66.96
15193;BME280;7697;51.630;7.484;2022-07-29T06:46:21;100845.78;;;19.47;67.53
15193;BME280;7697;51.630;7.484;2022-07-29T06:51:24;100846.53;;;19.64;67.51
15193;BME280;7697;51.630;7.484;2022-07-29T06:56:27;100857.19;;;19.81;67.06
15193;BME280;7697;51.630;7.484;2022-07-29T07:01:29;100852.50;;;20.57;66.72
15193;BME280;7697;51.630;7.484;2022-07-29T07:06:33;100850.38;;;20.32;64.83
15193;BME280;7697;51.630;7.484;2022-07-29T07:11:34;100858.47;;;20.32;63.76
15193;BME280;7697;51.630;7.484;2022-07-29T07:16:36;100851.88;;;21.29;60.56
15193;BME280;7697;51.630;7.484;2022-07-29T07:21:39;100850.94;;;21.76;57.85
15193;BME280;7697;51.630;7.484;2022-07-29T07:26:41;100862.78;;;21.75;56.87
15193;BME280;7697;51.630;7.484;2022-07-29T07:31:43;100872.63;;;21.28;59.29
15193;BME280;7697;51.630;7.484;2022-07-29T07:36:47;100858.66;;;21.37;59.01
15193;BME280;7697;51.630;7.484;2022-07-29T07:41:48;100861.16;;;21.63;58.20
15193;BME280;7697;51.630;7.484;2022-07-29T07:46:50;100860.94;;;21.85;57.94
15193;BME280;7697;51.630;7.484;2022-07-29T07:51:53;100867.16;;;21.96;56.67
15193;BME280;7697;51.630;7.484;2022-07-29T07:56:55;100863.72;;;22.26;56.46
15193;BME280;7697;51.630;7.484;2022-07-29T08:01:57;100867.47;;;22.55;55.11
15193;BME280;7697;51.630;7.484;2022-07-29T08:07:00;100873.69;;;22.71;54.66
15193;BME280;7697;51.630;7.484;2022-07-29T08:12:03;100873.16;;;22.89;54.60
15193;BME280;7697;51.630;7.484;2022-07-29T08:17:08;100876.09;;;22.93;54.85
15193;BME280;7697;51.630;7.484;2022-07-29T08:22:11;100880.38;;;23.09;54.42
15193;BME280;7697;51.630;7.484;2022-07-29T08:27:13;100881.66;;;23.32;54.10
15193;BME280;7697;51.630;7.484;2022-07-29T08:32:15;100868.91;;;23.52;53.65
15193;BME280;7697;51.630;7.484;2022-07-29T08:37:18;100861.81;;;23.62;52.42
15193;BME280;7697;51.630;7.484;2022-07-29T08:42:19;100866.34;;;23.71;50.14
15193;BME280;7697;51.630;7.484;2022-07-29T08:47:21;100870.16;;;24.09;49.21
15193;BME280;7697;51.630;7.484;2022-07-29T08:52:29;100882.41;;;24.02;49.86
15193;BME280;7697;51.630;7.484;2022-07-29T08:57:33;100872.84;;;24.14;51.23
15193;BME280;7697;51.630;7.484;2022-07-29T09:02:39;100883.38;;;24.16;52.60
15193;BME280;7697;51.630;7.484;2022-07-29T09:07:43;100884.50;;;24.15;51.79
15193;BME280;7697;51.630;7.484;2022-07-29T09:12:48;100871.03;;;24.00;52.82
15193;BME280;7697;51.630;7.484;2022-07-29T09:17:50;100860.88;;;23.86;53.68
15193;BME280;7697;51.630;7.484;2022-07-29T09:22:53;100859.72;;;23.98;53.79
15193;BME280;7697;51.630;7.484;2022-07-29T09:27:55;100858.91;;;23.97;53.96
15193;BME280;7697;51.630;7.484;2022-07-29T09:32:59;100864.59;;;23.90;53.93
15193;BME280;7697;51.630;7.484;2022-07-29T09:38:12;100853.34;;;23.78;55.27
15193;BME280;7697;51.630;7.484;2022-07-29T09:43:14;100860.75;;;23.58;56.64
15193;BME280;7697;51.630;7.484;2022-07-29T09:48:18;100864.31;;;23.43;58.60
15193;BME280;7697;51.630;7.484;2022-07-29T09:53:31;100866.25;;;23.32;59.35
15193;BME280;7697;51.630;7.484;2022-07-29T09:58:33;100873.56;;;23.32;60.13
15193;BME280;7697;51.630;7.484;2022-07-29T10:03:50;100868.97;;;23.27;59.90
15193;BME280;7697;51.630;7.484;2022-07-29T10:08:53;100870.88;;;23.22;60.85
15193;BME280;7697;51.630;7.484;2022-07-29T10:13:55;100874.13;;;23.18;60.99
15193;BME280;7697;51.630;7.484;2022-07-29T10:18:57;100878.41;;;23.35;60.99
15193;BME280;7697;51.630;7.484;2022-07-29T10:24:01;100874.66;;;23.20;60.71
15193;BME280;7697;51.630;7.484;2022-07-29T10:29:03;100874.22;;;22.98;60.84
15193;BME280;7697;51.630;7.484;2022-07-29T10:34:10;100863.41;;;22.83;61.99
15193;BME280;7697;51.630;7.484;2022-07-29T10:39:28;100861.81;;;22.77;62.33
15193;BME280;7697;51.630;7.484;2022-07-29T10:44:34;100861.00;;;22.66;62.55
15193;BME280;7697;51.630;7.484;2022-07-29T10:49:37;100864.50;;;22.57;62.70
15193;BME280;7697;51.630;7.484;2022-07-29T10:54:57;100858.03;;;22.58;63.19
15193;BME280;7697;51.630;7.484;2022-07-29T11:00:28;100864.00;;;22.55;64.25
15193;BME280;7697;51.630;7.484;2022-07-29T11:05:54;100858.03;;;22.48;64.48
15193;BME280;7697;51.630;7.484;2022-07-29T11:11:31;100854.81;;;22.25;65.15
15193;BME280;7697;51.630;7.484;2022-07-29T11:16:58;100851.03;;;22.16;66.10
15193;BME280;7697;51.630;7.484;2022-07-29T11:22:01;100851.03;;;22.16;65.79
15193;BME280;7697;51.630;7.484;2022-07-29T11:27:13;100854.28;;;22.18;65.85
15193;BME280;7697;51.630;7.484;2022-07-29T11:32:17;100865.06;;;22.18;65.31
15193;BME280;7697;51.630;7.484;2022-07-29T11:37:21;100867.22;;;22.16;65.91
15193;BME280;7697;51.630;7.484;2022-07-29T11:42:50;100873.66;;;22.10;66.66
15193;BME280;7697;51.630;7.484;2022-07-29T11:47:54;100873.38;;;22.01;66.47
15193;BME280;7697;51.630;7.484;2022-07-29T11:52:58;100873.88;;;21.93;66.14
15193;BME280;7697;51.630;7.484;2022-07-29T11:58:02;100872.25;;;21.92;66.25
15193;BME280;7697;51.630;7.484;2022-07-29T12:03:05;100867.41;;;21.84;66.94
15193;BME280;7697;51.630;7.484;2022-07-29T12:08:13;100862.53;;;21.76;68.67
15193;BME280;7697;51.630;7.484;2022-07-29T12:13:18;100849.53;;;21.58;69.77
15193;BME280;7697;51.630;7.484;2022-07-29T12:18:21;100853.59;;;21.55;70.48
15193;BME280;7697;51.630;7.484;2022-07-29T12:23:23;100866.53;;;21.58;71.00
15193;BME280;7697;51.630;7.484;2022-07-29T12:28:26;100860.88;;;21.60;71.82
15193;BME280;7697;51.630;7.484;2022-07-29T12:33:28;100861.94;;;21.59;71.63
15193;BME280;7697;51.630;7.484;2022-07-29T12:38:30;100865.94;;;21.41;72.15
15193;BME280;7697;51.630;7.484;2022-07-29T12:43:33;100865.38;;;21.34;72.63
15193;BME280;7697;51.630;7.484;2022-07-29T12:48:36;100869.19;;;21.43;73.14
15193;BME280;7697;51.630;7.484;2022-07-29T12:53:38;100851.88;;;21.34;74.49
15193;BME280;7697;51.630;7.484;2022-07-29T12:58:41;100860.75;;;21.24;74.66
15193;BME280;7697;51.630;7.484;2022-07-29T13:03:46;100859.97;;;21.34;74.19
15193;BME280;7697;51.630;7.484;2022-07-29T13:08:58;100855.59;;;21.18;74.11
15193;BME280;7697;51.630;7.484;2022-07-29T13:14:02;100861.97;;;21.12;74.68
15193;BME280;7697;51.630;7.484;2022-07-29T13:19:06;100863.47;;;21.34;75.03
15193;BME280;7697;51.630;7.484;2022-07-29T13:24:08;100871.66;;;21.60;74.36
15193;BME280;7697;51.630;7.484;2022-07-29T13:29:11;100866.00;;;21.66;74.16
15193;BME280;7697;51.630;7.484;2022-07-29T13:34:13;100864.66;;;21.69;74.23
15193;BME280;7697;51.630;7.484;2022-07-29T13:39:14;100867.69;;;21.83;74.56
15193;BME280;7697;51.630;7.484;2022-07-29T13:44:18;100859.38;;;22.04;74.25
15193;BME280;7697;51.630;7.484;2022-07-29T13:49:20;100862.38;;;22.33;73.83
15193;BME280;7697;51.630;7.484;2022-07-29T13:54:21;100863.97;;;22.75;71.32
15193;BME280;7697;51.630;7.484;2022-07-29T13:59:25;100862.25;;;23.09;70.77
15193;BME280;7697;51.630;7.484;2022-07-29T14:04:27;100847.94;;;23.78;68.16
15193;BME280;7697;51.630;7.484;2022-07-29T14:09:28;100847.28;;;23.97;67.41
15193;BME280;7697;51.630;7.484;2022-07-29T14:14:32;100857.00;;;24.37;66.23
15193;BME280;7697;51.630;7.484;2022-07-29T14:19:35;100853.75;;;24.63;63.78
15193;BME280;7697;51.630;7.484;2022-07-29T14:24:38;100848.66;;;24.86;62.73
15193;BME280;7697;51.630;7.484;2022-07-29T14:29:41;100852.03;;;25.01;62.23
15193;BME280;7697;51.630;7.484;2022-07-29T14:34:42;100847.03;;;25.32;62.65
15193;BME280;7697;51.630;7.484;2022-07-29T14:39:44;100848.81;;;25.66;61.65
15193;BME280;7697;51.630;7.484;2022-07-29T14:44:47;100839.94;;;25.79;60.38
15193;BME280;7697;51.630;7.484;2022-07-29T14:49:49;100848.97;;;25.93;59.41
15193;BME280;7697;51.630;7.484;2022-07-29T14:54:51;100847.25;;;25.97;58.37
15193;BME280;7697;51.630;7.484;2022-07-29T14:59:54;100847.09;;;26.07;58.33
15193;BME280;7697;51.630;7.484;2022-07-29T15:04:56;100853.25;;;26.32;57.77
15193;BME280;7697;51.630;7.484;2022-07-29T15:09:57;100847.25;;;26.48;54.80
15193;BME280;7697;51.630;7.484;2022-07-29T15:15:01;100840.16;;;26.66;55.05
15193;BME280;7697;51.630;7.484;2022-07-29T15:20:03;100838.19;;;26.99;53.79
15193;BME280;7697;51.630;7.484;2022-07-29T15:25:06;100835.06;;;26.92;51.57
15193;BME280;7697;51.630;7.484;2022-07-29T15:30:10;100842.19;;;26.88;53.07
15193;BME280;7697;51.630;7.484;2022-07-29T15:35:12;100841.41;;;27.15;53.10
15193;BME280;7697;51.630;7.484;2022-07-29T15:40:14;100841.31;;;26.93;51.23
15193;BME280;7697;51.630;7.484;2022-07-29T15:45:17;100835.94;;;26.87;51.96
15193;BME280;7697;51.630;7.484;2022-07-29T15:50:19;100829.31;;;26.94;51.93
15193;BME280;7697;51.630;7.484;2022-07-29T15:55:20;100830.22;;;27.03;51.25
15193;BME280;7697;51.630;7.484;2022-07-29T16:00:24;100832.34;;;27.06;50.04
15193;BME280;7697;51.630;7.484;2022-07-29T16:05:26;100827.41;;;27.08;50.72
15193;BME280;7697;51.630;7.484;2022-07-29T16:10:28;100826.56;;;27.21;51.64
15193;BME280;7697;51.630;7.484;2022-07-29T16:15:32;100821.03;;;27.26;53.26
15193;BME280;7697;51.630;7.484;2022-07-29T16:20:34;100817.94;;;27.19;52.89
15193;BME280;7697;51.630;7.484;2022-07-29T16:25:37;100821.97;;;27.08;52.10
15193;BME280;7697;51.630;7.484;2022-07-29T16:30:40;100824.47;;;26.90;52.34
15193;BME280;7697;51.630;7.484;2022-07-29T16:35:42;100822.53;;;26.77;52.70
15193;BME280;7697;51.630;7.484;2022-07-29T16:40:43;100823.53;;;26.54;51.64
15193;BME280;7697;51.630;7.484;2022-07-29T16:45:47;100827.69;;;26.33;51.63
15193;BME280;7697;51.630;7.484;2022-07-29T16:50:48;100829.63;;;26.13;52.39
15193;BME280;7697;51.630;7.484;2022-07-29T16:55:50;100839.47;;;26.09;52.91
15193;BME280;7697;51.630;7.484;2022-07-29T17:00:53;100839.34;;;26.01;52.65
15193;BME280;7697;51.630;7.484;2022-07-29T17:05:55;100836.78;;;25.91;52.34
15193;BME280;7697;51.630;7.484;2022-07-29T17:10:57;100835.03;;;25.81;52.23
15193;BME280;7697;51.630;7.484;2022-07-29T17:16:00;100843.97;;;25.82;52.32
15193;BME280;7697;51.630;7.484;2022-07-29T17:21:01;100843.75;;;25.78;52.89
15193;BME280;7697;51.630;7.484;2022-07-29T17:26:03;100847.19;;;25.65;52.36
15193;BME280;7697;51.630;7.484;2022-07-29T17:31:07;100839.97;;;25.55;53.50
15193;BME280;7697;51.630;7.484;2022-07-29T17:36:09;100845.78;;;25.49;53.95
15193;BME280;7697;51.630;7.484;2022-07-29T17:41:27;100857.28;;;25.40;54.10
15193;BME280;7697;51.630;7.484;2022-07-29T17:46:30;100860.03;;;25.35;54.72
15193;BME280;7697;51.630;7.484;2022-07-29T17:51:32;100871.53;;;25.27;54.60
15193;BME280;7697;51.630;7.484;2022-07-29T17:56:34;100875.91;;;25.23;54.44
15193;BME280;7697;51.630;7.484;2022-07-29T18:01:37;100878.63;;;25.23;55.46
15193;BME280;7697;51.630;7.484;2022-07-29T18:06:40;100877.34;;;25.16;55.37
15193;BME280;7697;51.630;7.484;2022-07-29T18:11:42;100881.50;;;25.08;55.64
15193;BME280;7697;51.630;7.484;2022-07-29T18:16:45;100881.59;;;25.03;56.26
15193;BME280;7697;51.630;7.484;2022-07-29T18:21:47;100883.53;;;24.97;56.97
15193;BME280;7697;51.630;7.484;2022-07-29T18:26:49;100883.03;;;24.90;57.33
15193;BME280;7697;51.630;7.484;2022-07-29T18:31:52;100887.44;;;24.86;57.20
15193;BME280;7697;51.630;7.484;2022-07-29T18:36:54;100875.28;;;24.79;57.32
15193;BME280;7697;51.630;7.484;2022-07-29T18:41:56;100887.84;;;24.69;57.58
15193;BME280;7697;51.630;7.484;2022-07-29T18:46:59;100885.75;;;24.61;57.74
15193;BME280;7697;51.630;7.484;2022-07-29T18:52:02;100881.53;;;24.50;58.23
15193;BME280;7697;51.630;7.484;2022-07-29T18:57:04;100888.94;;;24.40;58.66
15193;BME280;7697;51.630;7.484;2022-07-29T19:02:07;100893.06;;;24.27;58.56
15193;BME280;7697;51.630;7.484;2022-07-29T19:07:08;100893.16;;;24.12;58.81
15193;BME280;7697;51.630;7.484;2022-07-29T19:12:10;100898.09;;;24.00;59.26
15193;BME280;7697;51.630;7.484;2022-07-29T19:17:14;100902.00;;;23.88;59.47
15193;BME280;7697;51.630;7.484;2022-07-29T19:22:15;100898.53;;;23.78;59.96
15193;BME280;7697;51.630;7.484;2022-07-29T19:27:18;100899.91;;;23.70;60.26
15193;BME280;7697;51.630;7.484;2022-07-29T19:32:21;100918.88;;;23.65;60.64
15193;BME280;7697;51.630;7.484;2022-07-29T19:37:24;100924.84;;;23.57;60.86
15193;BME280;7697;51.630;7.484;2022-07-29T19:42:26;100923.25;;;23.46;60.92
15193;BME280;7697;51.630;7.484;2022-07-29T19:47:29;100924.63;;;23.38;61.28
15193;BME280;7697;51.630;7.484;2022-07-29T19:52:31;100938.97;;;23.29;61.82
15193;BME280;7697;51.630;7.484;2022-07-29T19:57:34;100947.09;;;23.18;62.25
15193;BME280;7697;51.630;7.484;2022-07-29T20:02:38;100951.44;;;23.09;62.69
15193;BME280;7697;51.630;7.484;2022-07-29T20:07:40;100946.88;;;23.00;62.94
15193;BME280;7697;51.630;7.484;2022-07-29T20:12:42;100947.16;;;22.93;63.92
15193;BME280;7697;51.630;7.484;2022-07-29T20:17:45;100939.63;;;22.80;64.21
15193;BME280;7697;51.630;7.484;2022-07-29T20:22:47;100936.34;;;22.68;64.99
15193;BME280;7697;51.630;7.484;2022-07-29T20:27:49;100949.31;;;22.61;65.43
15193;BME280;7697;51.630;7.484;2022-07-29T20:32:53;100944.72;;;22.51;65.57
15193;BME280;7697;51.630;7.484;2022-07-29T20:37:54;100957.38;;;22.40;66.27
15193;BME280;7697;51.630;7.484;2022-07-29T20:42:56;100956.56;;;22.30;66.38
15193;BME280;7697;51.630;7.484;2022-07-29T20:47:59;100953.03;;;22.19;66.44
15193;BME280;7697;51.630;7.484;2022-07-29T20:53:01;100951.41;;;22.08;66.59
15193;BME280;7697;51.630;7.484;2022-07-29T20:58:03;100950.56;;;21.97;66.96
15193;BME280;7697;51.630;7.484;2022-07-29T21:03:06;100949.38;;;21.83;67.12
15193;BME280;7697;51.630;7.484;2022-07-29T21:08:08;100960.44;;;21.77;67.26
15193;BME280;7697;51.630;7.484;2022-07-29T21:13:10;100958.78;;;21.70;67.64
15193;BME280;7697;51.630;7.484;2022-07-29T21:18:14;100964.97;;;21.66;67.97
15193;BME280;7697;51.630;7.484;2022-07-29T21:23:26;100973.56;;;21.58;68.16
15193;BME280;7697;51.630;7.484;2022-07-29T21:28:29;100972.16;;;21.50;68.67
15193;BME280;7697;51.630;7.484;2022-07-29T21:33:38;100965.13;;;21.44;68.65
15193;BME280;7697;51.630;7.484;2022-07-29T21:38:40;100964.84;;;21.41;68.74
15193;BME280;7697;51.630;7.484;2022-07-29T21:43:42;100969.41;;;21.35;69.12
15193;BME280;7697;51.630;7.484;2022-07-29T21:48:45;100976.38;;;21.31;69.06
15193;BME280;7697;51.630;7.484;2022-07-29T21:53:46;100984.19;;;21.27;69.57
15193;BME280;7697;51.630;7.484;2022-07-29T21:58:50;100975.22;;;21.22;70.08
15193;BME280;7697;51.630;7.484;2022-07-29T22:03:53;100980.56;;;21.17;70.84
15193;BME280;7697;51.630;7.484;2022-07-29T22:08:54;100977.81;;;21.12;70.97
15193;BME280;7697;51.630;7.484;2022-07-29T22:13:56;100979.13;;;21.04;71.29
15193;BME280;7697;51.630;7.484;2022-07-29T22:18:59;100971.78;;;20.94;71.75
15193;BME280;7697;51.630;7.484;2022-07-29T22:24:03;100974.44;;;20.89;72.22
15193;BME280;7697;51.630;7.484;2022-07-29T22:29:05;100981.13;;;20.82;72.49
15193;BME280;7697;51.630;7.484;2022-07-29T22:34:08;100986.72;;;20.75;73.01
15193;BME280;7697;51.630;7.484;2022-07-29T22:39:12;100976.16;;;20.69;73.02
15193;BME280;7697;51.630;7.484;2022-07-29T22:44:14;100976.69;;;20.66;73.78
15193;BME280;7697;51.630;7.484;2022-07-29T22:49:17;100980.94;;;20.62;73.41
15193;BME280;7697;51.630;7.484;2022-07-29T22:54:19;100973.06;;;20.55;74.33
15193;BME280;7697;51.630;7.484;2022-07-29T22:59:20;100970.31;;;20.50;74.18
15193;BME280;7697;51.630;7.484;2022-07-29T23:04:24;100969.16;;;20.41;74.34
15193;BME280;7697;51.630;7.484;2022-07-29T23:09:25;100963.13;;;20.34;74.16
15193;BME280;7697;51.630;7.484;2022-07-29T23:14:27;100955.53;;;20.26;74.67
15193;BME280;7697;51.630;7.484;2022-07-29T23:19:31;100953.88;;;20.19;74.80
15193;BME280;7697;51.630;7.484;2022-07-29T23:24:32;100950.56;;;20.12;74.96
15193;BME280;7697;51.630;7.484;2022-07-29T23:29:34;100946.78;;;20.13;75.54
15193;BME280;7697;51.630;7.484;2022-07-29T23:34:37;100947.56;;;20.09;75.50
15193;BME280;7697;51.630;7.484;2022-07-29T23:39:39;100956.13;;;20.06;76.05
15193;BME280;7697;51.630;7.484;2022-07-29T23:44:41;100956.66;;;20.03;75.70
15193;BME280;7697;51.630;7.484;2022-07-29T23:49:44;100944.72;;;19.94;76.08
15193;BME280;7697;51.630;7.484;2022-07-29T23:54:49;100939.78;;;19.85;75.59
15193;BME280;7697;51.630;7.484;2022-07-29T23:59:51;100940.91;;;19.68;76.17
